Main page
METAR-TAF:

METAR-TAF

Airports :

Larissa, Greece

latitude: 39-38N, longitude: 022-25E, elevation: 73 m

METAR: missing

Time: 13:24 (11:24 UTC)

Forecast

The report was made 21 hours and 24 minutes ago, at 14:00 UTC
Forecast valid from 20 at 15 UTC to 20 at 24 UTC
Wind 10 kt from the East
Visibility: 8000 m
Few clouds at a height of 1000 ft
Broken clouds at a height of 2500 ft
Broken clouds at a height of 8000 ft
Probability 40% :
Temporary
from 20 at 15 UTC to 20 at 24 UTC
Visibility: 6000 m
Scattered clouds at a height of 1000 ft
Broken clouds at a height of 2500 ft
Broken clouds at a height of 8000 ft
rain

TAF: LGLR 201400Z 2015/2024 09010KT 8000 FEW010 BKN025 BKN080 PROB40 TEMPO 2015/2024 6000 RA SCT010 BKN025 BKN080

Weather observations and forecasts of more than 4000 airports (METAR and TAF reports).

The available stations are represented by yellow and red dots on the map.

Hover mouse over dot to see the name of the station.

Then click to see weather observations and forecasts.

To change the map : click on the green buttons with a black cross to zoom in, on the green button with a dash to zoom out, or on the green arrows for adjacent maps.


METAR-TAF: